Time;durP1;ratioP1;P1;durP2;ratioP2;P2;SDS_P1;SDS_P2;PMS_P1;PMS_P2;Temp;Humidity;BMP_temperature;BMP_pressure;BME280_temperature;BME280_humidity;BME280_pressure;Samples;Min_cycle;Max_cycle;Signal;HPM_P1;HPM_P2
2023/01/01 00:02:00;;;;;;;;;;;;;;;10.13;66.56;99586.50;4332494;33;19971;-81
2023/01/01 00:04:25;;;;;;;;;;;;;;;10.32;65.80;99588.44;4331767;33;19987;-81
2023/01/01 00:06:51;;;;;;;;;;;;;;;10.37;65.55;99587.34;4331314;33;20041;-81
2023/01/01 00:12:00;;;;;;;;;;;;;;;10.39;65.65;99590.75;4344125;33;20034;-80
2023/01/01 00:14:26;;;;;;;;;;;;;;;10.42;65.75;99592.41;4344038;33;20011;-80
2023/01/01 00:16:53;;;;;;;;;;;;;;;10.47;65.71;99592.19;4336079;33;20027;-81
2023/01/01 00:19:18;;;;;;;;;;;;;;;10.52;65.64;99590.25;4330838;33;19995;-80
2023/01/01 00:21:45;;;;;;;;;;;;;;;10.56;65.43;99591.81;4332554;33;20251;-81
2023/01/01 00:24:10;;;;;;;;;;;;;;;10.58;65.38;99587.34;4332118;33;20370;-81
2023/01/01 00:26:35;;;;;;;;;;;;;;;10.54;65.50;99583.97;4332057;33;19980;-81
2023/01/01 00:29:01;;;;;;;;;;;;;;;10.61;65.22;99595.13;4316476;33;19982;-80
2023/01/01 00:31:26;;;;;;;;;;;;;;;10.63;65.08;99593.28;4331609;33;20277;-80
2023/01/01 00:33:52;;;;;;;;;;;;;;;10.65;64.90;99593.22;4329363;33;19971;-80
2023/01/01 00:36:18;;;;;;;;;;;;;;;10.60;64.95;99583.75;4329834;33;19955;-81
2023/01/01 00:38:43;;;;;;;;;;;;;;;10.57;64.96;99586.50;4317683;33;20002;-80
2023/01/01 00:41:09;;;;;;;;;;;;;;;10.58;65.06;99593.47;4330828;33;20006;-81
2023/01/01 00:43:34;;;;;;;;;;;;;;;10.54;65.36;99594.50;4338430;33;19995;-78
2023/01/01 00:46:00;;;;;;;;;;;;;;;10.58;65.20;99592.62;4330348;33;20346;-83
2023/01/01 00:48:25;;;;;;;;;;;;;;;10.54;65.31;99589.25;4327342;33;20002;-83
2023/01/01 00:50:51;;;;;;;;;;;;;;;10.59;65.06;99591.72;4315974;33;20042;-83
2023/01/01 00:53:16;;;;;;;;;;;;;;;10.59;65.08;99591.72;4304673;33;20344;-88
2023/01/01 00:55:41;;;;;;;;;;;;;;;10.55;65.09;99590.13;4304507;33;20010;-86
2023/01/01 00:58:07;;;;;;;;;;;;;;;10.58;64.89;99584.72;4318162;33;20408;-82
2023/01/01 01:00:32;;;;;;;;;;;;;;;10.57;64.77;99577.75;4305193;33;19992;-85
2023/01/01 01:02:57;;;;;;;;;;;;;;;10.52;64.58;99582.34;4318510;33;20218;-83
2023/01/01 01:05:23;;;;;;;;;;;;;;;10.04;65.80;99584.22;4318634;33;20003;-84
2023/01/01 01:07:48;;;;;;;;;;;;;;;10.16;64.58;99582.87;4318589;33;19995;-83
2023/01/01 01:10:13;;;;;;;;;;;;;;;10.23;64.21;99587.00;4318550;33;19994;-84
2023/01/01 01:12:38;;;;;;;;;;;;;;;10.24;64.12;99592.19;4305669;33;20301;-93
2023/01/01 01:15:04;;;;;;;;;;;;;;;10.23;64.25;99595.72;4324116;33;19975;-83
2023/01/01 01:17:29;;;;;;;;;;;;;;;10.25;64.36;99590.41;4346316;33;19996;-87
2023/01/01 01:19:55;;;;;;;;;;;;;;;10.28;64.51;99590.31;4344145;33;20051;-85
2023/01/01 01:22:20;;;;;;;;;;;;;;;10.30;64.64;99590.25;4345724;33;19999;-80
2023/01/01 01:24:45;;;;;;;;;;;;;;;10.34;64.66;99597.13;4346253;33;20035;-81
2023/01/01 01:27:11;;;;;;;;;;;;;;;10.34;64.54;99595.34;4342251;33;161413;-81
2023/01/01 01:29:36;;;;;;;;;;;;;;;10.35;64.54;99594.44;4346690;33;20034;-84
2023/01/01 01:32:01;;;;;;;;;;;;;;;10.36;64.61;99598.78;4347796;33;19990;-80
2023/01/01 01:34:26;;;;;;;;;;;;;;;10.36;64.46;99598.78;4348231;33;20276;-81
2023/01/01 01:36:52;;;;;;;;;;;;;;;10.34;64.51;99592.72;4348617;33;20355;-81
2023/01/01 01:39:17;;;;;;;;;;;;;;;10.34;64.54;99589.22;4347900;33;20255;-81
2023/01/01 01:41:42;;;;;;;;;;;;;;;10.36;64.51;99587.38;4349756;33;20105;-81
2023/01/01 01:44:26;;;;;;;;;;;;;;;10.35;64.46;99586.53;4344225;33;19975;-81
2023/01/01 01:46:51;;;;;;;;;;;;;;;10.35;64.49;99591.81;4330922;33;20249;-80
2023/01/01 01:49:19;;;;;;;;;;;;;;;10.37;64.58;99584.69;4321881;33;20428;-81
2023/01/01 01:51:44;;;;;;;;;;;;;;;10.36;64.53;99585.59;4320628;33;19993;-81
2023/01/01 01:54:10;;;;;;;;;;;;;;;10.37;64.52;99589.97;4320943;33;19999;-81
2023/01/01 01:56:46;;;;;;;;;;;;;;;10.37;64.53;99584.69;4321453;33;19991;-81
2023/01/01 01:59:11;;;;;;;;;;;;;;;10.38;64.51;99591.66;4321892;33;20011;-81
2023/01/01 02:01:37;;;;;;;;;;;;;;;10.36;64.53;99592.66;4335233;33;19993;-81
2023/01/01 02:04:02;;;;;;;;;;;;;;;10.39;64.36;99596.03;4321744;33;19983;-81
2023/01/01 02:06:28;;;;;;;;;;;;;;;10.35;64.53;99593.56;4322442;33;19980;-81
2023/01/01 02:08:54;;;;;;;;;;;;;;;10.34;64.52;99592.72;4322737;33;19983;-81
2023/01/01 02:11:19;;;;;;;;;;;;;;;10.33;64.53;99592.78;4322772;33;19982;-81
2023/01/01 02:13:44;;;;;;;;;;;;;;;10.34;64.46;99587.44;4335977;33;19975;-81
2023/01/01 02:16:10;;;;;;;;;;;;;;;10.34;64.37;99584.81;4322719;33;20253;-81
2023/01/01 02:18:42;;;;;;;;;;;;;;;10.32;64.37;99588.44;4335809;33;20019;-81
2023/01/01 02:21:10;;;;;;;;;;;;;;;10.31;64.43;99579.66;4322188;33;19980;-80
2023/01/01 02:23:57;;;;;;;;;;;;;;;10.28;64.42;99579.75;4322407;33;19967;-81
2023/01/01 02:26:38;;;;;;;;;;;;;;;10.26;64.38;99576.34;4322254;33;19998;-80
2023/01/01 02:29:06;;;;;;;;;;;;;;;10.18;64.39;99588.97;4322687;33;20344;-81
2023/01/01 02:31:34;;;;;;;;;;;;;;;10.20;64.07;99598.50;4335807;33;20033;-81
2023/01/01 02:34:10;;;;;;;;;;;;;;;10.13;63.64;99612.81;4322366;33;19979;-81
2023/01/01 02:36:37;;;;;;;;;;;;;;;10.11;63.53;99605.91;4322485;33;19987;-80
2023/01/01 02:39:03;;;;;;;;;;;;;;;10.08;63.46;99617.41;4322426;33;20054;-81
2023/01/01 02:41:54;;;;;;;;;;;;;;;10.03;63.44;99609.69;4335600;33;19980;-81
2023/01/01 02:44:20;;;;;;;;;;;;;;;10.03;63.48;99614.97;4333358;33;19986;-81
2023/01/01 02:46:45;;;;;;;;;;;;;;;9.99;63.85;99609.91;4335678;33;20368;-81
2023/01/01 02:49:11;;;;;;;;;;;;;;;10.01;63.97;99608.06;4334341;33;19991;-81
2023/01/01 02:51:55;;;;;;;;;;;;;;;10.00;64.12;99599.28;4335078;33;20034;-81
2023/01/01 02:54:23;;;;;;;;;;;;;;;10.03;64.23;99601.81;4335836;33;20047;-81
2023/01/01 02:56:52;;;;;;;;;;;;;;;10.00;64.31;99604.53;4335632;33;19998;-81
2023/01/01 03:02:11;;;;;;;;;;;;;;;10.06;64.56;99590.28;4324302;33;20050;-81
2023/01/01 03:04:46;;;;;;;;;;;;;;;9.82;64.92;99594.75;4322285;33;19989;-81
2023/01/01 03:07:23;;;;;;;;;;;;;;;9.81;64.69;99593.03;4335513;33;20577;-81
2023/01/01 03:09:54;;;;;;;;;;;;;;;9.60;64.32;99594.69;4322176;33;20006;-81
2023/01/01 03:12:42;;;;;;;;;;;;;;;9.73;63.93;99597.72;4322464;33;19979;-81
2023/01/01 03:15:16;;;;;;;;;;;;;;;9.79;63.67;99589.59;4322929;33;20320;-81
2023/01/01 03:17:45;;;;;;;;;;;;;;;9.78;63.85;99583.47;4335540;33;19987;-81
2023/01/01 03:20:12;;;;;;;;;;;;;;;9.77;63.92;99587.03;4321929;33;20043;-81
2023/01/01 03:22:38;;;;;;;;;;;;;;;9.77;63.99;99583.53;4322126;33;19990;-81
2023/01/01 03:25:05;;;;;;;;;;;;;;;9.77;64.08;99588.78;4322052;33;19975;-80
2023/01/01 03:27:35;;;;;;;;;;;;;;;9.80;64.23;99600.06;4335242;33;19993;-80
2023/01/01 03:30:02;;;;;;;;;;;;;;;9.82;64.40;99598.22;4322075;33;20010;-80
2023/01/01 03:32:59;;;;;;;;;;;;;;;9.86;64.55;99596.34;4322024;33;19987;-80
2023/01/01 03:35:15;;;;;;;;;;;;;;;9.89;64.69;99592.72;4324384;33;20051;-80
2023/01/01 03:37:40;;;;;;;;;;;;;;;9.97;64.83;99582.78;4322163;33;20039;-80
2023/01/01 03:40:07;;;;;;;;;;;;;;;9.97;65.06;99586.25;4321841;33;20027;-80
2023/01/01 03:42:42;;;;;;;;;;;;;;;10.03;65.08;99583.38;4322349;33;20037;-80
2023/01/01 03:45:09;;;;;;;;;;;;;;;10.07;65.00;99578.00;4321974;33;19987;-80
2023/01/01 03:47:34;;;;;;;;;;;;;;;9.76;65.74;99577.41;4335264;33;19983;-80
2023/01/01 03:50:00;;;;;;;;;;;;;;;9.58;65.76;99586.88;4322085;33;20068;-80
2023/01/01 03:52:29;;;;;;;;;;;;;;;8.95;66.63;99594.41;4335402;33;19979;-80
2023/01/01 03:54:54;;;;;;;;;;;;;;;9.46;65.19;99582.06;4322009;33;19997;-79
2023/01/01 03:57:38;;;;;;;;;;;;;;;9.58;64.69;99586.88;4321939;33;19998;-80
2023/01/01 04:00:15;;;;;;;;;;;;;;;9.72;64.36;99582.87;4335165;33;19983;-80
2023/01/01 04:02:43;;;;;;;;;;;;;;;9.73;64.45;99572.25;4321044;33;19975;-79
2023/01/01 04:05:11;;;;;;;;;;;;;;;9.75;64.38;99573.06;4334924;33;19991;-80
2023/01/01 04:07:36;;;;;;;;;;;;;;;9.66;64.39;99570.81;4322036;33;20383;-79
2023/01/01 04:10:15;;;;;;;;;;;;;;;9.47;65.07;99572.41;4321648;33;20014;-79
2023/01/01 04:12:48;;;;;;;;;;;;;;;9.64;64.52;99572.63;4322843;33;19993;-80
2023/01/01 04:15:14;;;;;;;;;;;;;;;9.71;64.24;99576.72;4321610;33;19998;-80
2023/01/01 04:17:39;;;;;;;;;;;;;;;9.74;64.15;99576.63;4321538;33;19994;-80
2023/01/01 04:20:06;;;;;;;;;;;;;;;9.80;63.91;99578.16;4321501;33;20027;-80
2023/01/01 04:22:32;;;;;;;;;;;;;;;9.82;63.69;99578.97;4321735;33;20043;-80
2023/01/01 04:24:57;;;;;;;;;;;;;;;9.81;62.97;99579.84;4321531;33;19975;-80
2023/01/01 04:27:22;;;;;;;;;;;;;;;9.72;63.04;99574.97;4321201;33;20017;-79
2023/01/01 04:29:47;;;;;;;;;;;;;;;9.65;63.03;99575.19;4334950;33;19997;-79
2023/01/01 04:32:13;;;;;;;;;;;;;;;9.43;63.63;99574.31;4334658;33;20010;-80
2023/01/01 04:34:38;;;;;;;;;;;;;;;9.40;63.55;99574.41;4321284;33;19989;-80
2023/01/01 04:37:03;;;;;;;;;;;;;;;9.37;63.66;99574.53;4321320;33;20042;-80
2023/01/01 04:39:28;;;;;;;;;;;;;;;9.24;64.15;99576.75;4334594;33;20287;-80
2023/01/01 04:41:54;;;;;;;;;;;;;;;9.29;63.98;99584.44;4321296;33;20001;-80
2023/01/01 04:44:19;;;;;;;;;;;;;;;9.30;64.12;99573.87;4334555;33;19994;-80
2023/01/01 04:46:44;;;;;;;;;;;;;;;9.35;64.06;99566.69;4321105;33;19979;-80
2023/01/01 04:49:09;;;;;;;;;;;;;;;9.35;64.14;99566.69;4334568;33;19983;-80
2023/01/01 04:51:35;;;;;;;;;;;;;;;9.38;63.92;99568.34;4334686;33;20307;-80
2023/01/01 04:54:01;;;;;;;;;;;;;;;9.33;63.93;99578.16;4334382;33;20018;-80
2023/01/01 04:56:26;;;;;;;;;;;;;;;9.26;64.20;99585.44;4321309;33;19991;-80
2023/01/01 04:58:51;;;;;;;;;;;;;;;9.25;64.37;99591.59;4321156;33;19999;-80
2023/01/01 05:01:20;;;;;;;;;;;;;;;9.27;64.36;99600.28;4334509;33;20296;-80
2023/01/01 05:03:46;;;;;;;;;;;;;;;9.08;65.05;99600.09;4321071;33;20006;-80
2023/01/01 05:06:11;;;;;;;;;;;;;;;9.22;64.67;99596.97;4334267;33;19979;-80
2023/01/01 05:08:37;;;;;;;;;;;;;;;9.22;64.45;99589.94;4334447;33;20026;-80
2023/01/01 05:11:03;;;;;;;;;;;;;;;9.20;64.33;99581.25;4320957;33;20289;-80
2023/01/01 05:13:29;;;;;;;;;;;;;;;9.20;64.12;99585.66;4321012;33;19974;-79
2023/01/01 05:15:54;;;;;;;;;;;;;;;9.18;63.88;99593.59;4335987;33;20255;-80
2023/01/01 05:18:20;;;;;;;;;;;;;;;9.01;64.20;99595.97;4336284;33;19975;-80
2023/01/01 05:20:45;;;;;;;;;;;;;;;9.08;64.11;99602.72;4322847;33;19983;-80
2023/01/01 05:23:10;;;;;;;;;;;;;;;9.05;64.20;99594.94;4336192;33;20277;-80
2023/01/01 05:25:35;;;;;;;;;;;;;;;9.11;64.26;99591.25;4336111;33;19983;-80
2023/01/01 05:28:01;;;;;;;;;;;;;;;9.17;64.33;99586.59;4336046;33;19979;-80
2023/01/01 05:30:26;;;;;;;;;;;;;;;9.17;64.21;99597.13;4322753;33;19989;-80
2023/01/01 05:32:51;;;;;;;;;;;;;;;8.78;64.74;99600.25;4336166;33;19971;-80
2023/01/01 05:35:16;;;;;;;;;;;;;;;8.64;65.09;99600.72;4336189;33;20001;-80
2023/01/01 05:37:42;;;;;;;;;;;;;;;8.45;65.88;99608.34;4336099;33;20284;-80
2023/01/01 05:40:07;;;;;;;;;;;;;;;8.79;64.93;99603.75;4322668;33;19975;-80
2023/01/01 05:42:33;;;;;;;;;;;;;;;8.92;64.81;99604.16;4336110;33;19971;-80
2023/01/01 05:44:58;;;;;;;;;;;;;;;9.02;64.69;99598.56;4336128;33;19983;-80
2023/01/01 05:47:23;;;;;;;;;;;;;;;9.07;64.67;99601.00;4336074;33;20015;-80
2023/01/01 05:49:48;;;;;;;;;;;;;;;9.01;64.78;99598.59;4335973;33;19979;-80
2023/01/01 05:52:14;;;;;;;;;;;;;;;9.03;64.61;99599.41;4322606;33;20007;-80
2023/01/01 05:54:39;;;;;;;;;;;;;;;9.06;64.12;99607.19;4335971;33;20328;-80
2023/01/01 05:57:04;;;;;;;;;;;;;;;8.95;64.42;99618.06;4335860;33;19979;-81
2023/01/01 05:59:29;;;;;;;;;;;;;;;8.72;65.08;99634.59;4335869;33;19983;-81
2023/01/01 06:01:55;;;;;;;;;;;;;;;8.79;65.08;99633.50;4322656;33;19971;-81
2023/01/01 06:04:20;;;;;;;;;;;;;;;8.93;64.89;99622.50;4335803;33;19990;-81
2023/01/01 06:06:45;;;;;;;;;;;;;;;8.99;64.89;99618.81;4335922;33;19999;-80
2023/01/01 06:09:11;;;;;;;;;;;;;;;8.95;64.83;99618.06;4335886;33;19975;-80
2023/01/01 06:11:36;;;;;;;;;;;;;;;9.01;64.41;99628.34;4322560;33;19967;-80
2023/01/01 06:14:01;;;;;;;;;;;;;;;8.99;64.44;99627.56;4335860;33;19979;-80
2023/01/01 06:16:27;;;;;;;;;;;;;;;8.96;64.13;99648.69;4335803;33;19979;-80
2023/01/01 06:18:52;;;;;;;;;;;;;;;8.59;64.52;99649.91;4335816;33;20019;-81
2023/01/01 06:21:18;;;;;;;;;;;;;;;8.86;63.77;99660.41;4335736;33;19986;-81
2023/01/01 06:23:43;;;;;;;;;;;;;;;8.60;64.75;99671.78;4335786;33;20038;-80
2023/01/01 06:26:13;;;;;;;;;;;;;;;8.50;65.81;99672.97;4334865;33;19971;-80
2023/01/01 06:28:38;;;;;;;;;;;;;;;8.73;65.36;99677.50;4335607;33;19975;-80
2023/01/01 06:31:05;;;;;;;;;;;;;;;8.88;65.20;99666.47;4322388;33;19991;-80
2023/01/01 06:33:31;;;;;;;;;;;;;;;8.95;65.06;99675.03;4322466;33;20486;-80
2023/01/01 06:35:56;;;;;;;;;;;;;;;9.00;64.95;99675.72;4322598;33;20093;-80
2023/01/01 06:38:21;;;;;;;;;;;;;;;9.08;64.61;99671.06;4322585;33;19994;-80
2023/01/01 06:40:56;;;;;;;;;;;;;;;9.12;64.44;99677.94;4322440;33;19985;-80
2023/01/01 06:43:22;;;;;;;;;;;;;;;9.19;64.28;99674.19;4335942;33;19984;-81
2023/01/01 06:45:47;;;;;;;;;;;;;;;9.24;64.23;99677.50;4335877;33;19986;-82
2023/01/01 06:48:12;;;;;;;;;;;;;;;9.22;64.10;99681.97;4335800;33;19971;-81
2023/01/01 06:50:37;;;;;;;;;;;;;;;9.20;64.04;99686.41;4322393;33;19979;-82
2023/01/01 06:53:03;;;;;;;;;;;;;;;9.16;64.12;99692.69;4322436;33;20025;-82
2023/01/01 06:55:28;;;;;;;;;;;;;;;8.72;65.04;99687.16;4335595;33;19986;-82
2023/01/01 06:57:53;;;;;;;;;;;;;;;7.83;67.77;99701.19;4335779;33;20007;-82
2023/01/01 07:00:18;;;;;;;;;;;;;;;8.73;65.80;99691.50;4335671;33;20041;-82
2023/01/01 07:02:46;;;;;;;;;;;;;;;9.00;65.22;99684.47;4335027;33;19971;-81
2023/01/01 07:05:11;;;;;;;;;;;;;;;9.20;64.98;99672.41;4335714;33;19987;-82
2023/01/01 07:07:37;;;;;;;;;;;;;;;9.34;64.51;99675.41;4334576;33;20014;-79
2023/01/01 07:10:02;;;;;;;;;;;;;;;9.44;64.07;99675.94;4335691;33;19983;-80
2023/01/01 07:12:27;;;;;;;;;;;;;;;9.48;64.04;99672.28;4335104;33;19975;-81
2023/01/01 07:14:52;;;;;;;;;;;;;;;9.35;63.67;99663.09;4335382;33;20037;-79
2023/01/01 07:17:18;;;;;;;;;;;;;;;9.47;63.78;99667.09;4335159;33;19971;-80
2023/01/01 07:19:43;;;;;;;;;;;;;;;9.43;63.88;99675.09;4321565;33;20003;-80
2023/01/01 07:22:08;;;;;;;;;;;;;;;9.59;62.75;99669.28;4335178;33;19990;-79
2023/01/01 07:24:34;;;;;;;;;;;;;;;9.61;63.35;99673.56;4334387;33;20238;-79
2023/01/01 07:26:59;;;;;;;;;;;;;;;9.54;63.68;99674.72;4335428;33;19989;-76
2023/01/01 07:29:24;;;;;;;;;;;;;;;9.55;63.90;99670.31;4331785;33;20513;-80
2023/01/01 07:31:49;;;;;;;;;;;;;;;9.59;63.86;99669.28;4332037;33;19995;-80
2023/01/01 07:34:15;;;;;;;;;;;;;;;9.70;63.68;99668.91;4334448;33;20325;-79
2023/01/01 07:36:41;;;;;;;;;;;;;;;9.83;63.08;99663.13;4334950;33;19975;-81
2023/01/01 07:39:06;;;;;;;;;;;;;;;9.80;63.36;99667.63;4333542;33;19997;-81
2023/01/01 07:41:32;;;;;;;;;;;;;;;9.77;63.06;99665.97;4335159;33;19968;-80
2023/01/01 07:43:57;;;;;;;;;;;;;;;9.64;63.56;99668.19;4335024;33;19983;-80
2023/01/01 07:46:22;;;;;;;;;;;;;;;9.69;62.69;99675.91;4335250;33;19986;-81
2023/01/01 07:48:48;;;;;;;;;;;;;;;9.59;63.50;99680.66;4335289;33;19990;-82
2023/01/01 07:51:13;;;;;;;;;;;;;;;9.62;63.71;99677.91;4335147;33;20003;-82
2023/01/01 07:53:38;;;;;;;;;;;;;;;9.58;64.11;99694.72;4335244;33;20014;-82
2023/01/01 07:56:03;;;;;;;;;;;;;;;9.43;64.71;99685.59;4335283;33;19993;-85
2023/01/01 07:58:29;;;;;;;;;;;;;;;9.69;64.36;99699.59;4335148;33;19979;-84
2023/01/01 08:00:54;;;;;;;;;;;;;;;9.87;64.20;99699.81;4333983;33;19984;-85
2023/01/01 08:03:19;;;;;;;;;;;;;;;10.04;63.96;99706.19;4335120;33;19980;-83
2023/01/01 08:05:45;;;;;;;;;;;;;;;10.19;63.66;99703.87;4335132;33;20285;-82
2023/01/01 08:08:10;;;;;;;;;;;;;;;10.29;63.19;99713.13;4333913;33;20022;-82
2023/01/01 08:10:35;;;;;;;;;;;;;;;10.30;62.89;99714.91;4321652;33;19984;-83
2023/01/01 08:13:01;;;;;;;;;;;;;;;10.38;62.47;99718.09;4333930;33;19991;-83
2023/01/01 08:15:26;;;;;;;;;;;;;;;10.41;62.34;99728.53;4333825;33;19990;-83
2023/01/01 08:17:58;;;;;;;;;;;;;;;10.18;62.65;99725.88;4334757;33;19983;-83
2023/01/01 08:20:23;;;;;;;;;;;;;;;10.37;62.24;99726.94;4334993;33;20084;-79
2023/01/01 08:22:49;;;;;;;;;;;;;;;10.48;61.98;99734.41;4333712;33;20000;-79
2023/01/01 08:25:14;;;;;;;;;;;;;;;10.50;62.08;99737.81;4335097;33;19978;-79
2023/01/01 08:27:39;;;;;;;;;;;;;;;10.57;61.67;99731.41;4334691;33;20309;-79
2023/01/01 08:30:05;;;;;;;;;;;;;;;10.65;61.49;99738.16;4334827;33;20244;-79
2023/01/01 08:32:30;;;;;;;;;;;;;;;10.72;61.53;99743.13;4334772;33;20018;-79
2023/01/01 08:34:55;;;;;;;;;;;;;;;10.81;61.65;99744.53;4333288;33;19979;-79
2023/01/01 08:37:21;;;;;;;;;;;;;;;10.92;61.24;99734.41;4334497;33;19971;-79
2023/01/01 08:39:50;;;;;;;;;;;;;;;11.01;61.22;99730.56;4333527;33;20010;-79
2023/01/01 08:42:15;;;;;;;;;;;;;;;11.12;61.24;99736.22;4321152;33;20050;-79
2023/01/01 08:44:40;;;;;;;;;;;;;;;10.85;61.73;99746.09;4334588;33;20013;-79
2023/01/01 08:47:05;;;;;;;;;;;;;;;11.10;61.12;99743.31;4334557;33;19979;-79
2023/01/01 08:49:31;;;;;;;;;;;;;;;11.02;60.80;99735.72;4335120;33;20022;-79
2023/01/01 08:51:56;;;;;;;;;;;;;;;11.19;60.74;99739.47;4336374;33;20027;-79
2023/01/01 08:54:22;;;;;;;;;;;;;;;10.84;61.37;99735.66;4336239;33;20331;-79
2023/01/01 08:56:50;;;;;;;;;;;;;;;11.13;60.67;99734.44;4322872;33;20014;-79
2023/01/01 08:59:18;;;;;;;;;;;;;;;10.90;61.22;99744.16;4336260;33;19979;-79
2023/01/01 09:01:43;;;;;;;;;;;;;;;11.20;60.80;99735.88;4336431;33;20018;-79
2023/01/01 09:04:11;;;;;;;;;;;;;;;11.38;60.11;99732.47;4336360;33;20226;-79
2023/01/01 09:06:36;;;;;;;;;;;;;;;11.35;59.92;99729.97;4335121;33;19985;-79
2023/01/01 09:09:02;;;;;;;;;;;;;;;11.46;59.80;99731.31;4336318;33;19972;-79
2023/01/01 09:11:27;;;;;;;;;;;;;;;11.53;59.90;99730.97;4336018;33;19975;-79
2023/01/01 09:13:52;;;;;;;;;;;;;;;11.62;59.77;99729.69;4336187;33;19983;-79
2023/01/01 09:16:18;;;;;;;;;;;;;;;11.69;59.06;99733.81;4336241;33;19971;-79
2023/01/01 09:18:43;;;;;;;;;;;;;;;11.71;59.07;99739.00;4336194;33;20280;-80
2023/01/01 09:21:08;;;;;;;;;;;;;;;11.71;58.92;99737.22;4322746;33;19999;-79
2023/01/01 09:23:33;;;;;;;;;;;;;;;11.66;58.72;99739.19;4336141;33;20025;-79
2023/01/01 09:26:02;;;;;;;;;;;;;;;11.62;58.98;99742.91;4335949;33;20362;-79
2023/01/01 09:28:28;;;;;;;;;;;;;;;11.57;58.97;99743.13;4335028;33;20010;-79
2023/01/01 09:30:53;;;;;;;;;;;;;;;11.42;59.36;99754.31;4336175;33;20368;-79
2023/01/01 09:33:19;;;;;;;;;;;;;;;11.48;59.12;99755.84;4336132;33;20051;-79
2023/01/01 09:35:44;;;;;;;;;;;;;;;11.50;59.26;99751.34;4322695;33;20266;-79
2023/01/01 09:38:09;;;;;;;;;;;;;;;11.54;59.52;99743.22;4335982;33;19979;-79
2023/01/01 09:40:55;;;;;;;;;;;;;;;11.57;59.54;99740.47;4336062;33;19983;-79
2023/01/01 09:43:39;;;;;;;;;;;;;;;11.59;59.79;99741.25;4335745;33;19971;-79
2023/01/01 09:46:05;;;;;;;;;;;;;;;11.64;59.90;99732.28;4334964;33;19975;-79
2023/01/01 09:48:31;;;;;;;;;;;;;;;11.71;59.94;99731.94;4335960;33;19975;-79
2023/01/01 09:50:57;;;;;;;;;;;;;;;11.77;60.08;99723.75;4334854;33;19990;-79
2023/01/01 09:53:34;;;;;;;;;;;;;;;11.85;59.95;99735.75;4334765;33;20026;-79
2023/01/01 09:56:00;;;;;;;;;;;;;;;11.88;59.57;99731.19;4334884;33;19979;-79
2023/01/01 09:58:32;;;;;;;;;;;;;;;11.91;59.36;99730.22;4334563;33;20030;-79
2023/01/01 10:01:21;;;;;;;;;;;;;;;11.92;59.52;99739.88;4333807;33;19991;-79
2023/01/01 10:03:56;;;;;;;;;;;;;;;11.87;59.00;99737.41;4334842;33;20296;-79
2023/01/01 10:06:22;;;;;;;;;;;;;;;11.51;59.68;99746.03;4335925;33;19994;-79
2023/01/01 10:08:50;;;;;;;;;;;;;;;11.75;59.36;99741.44;4335896;33;19979;-79
2023/01/01 10:11:18;;;;;;;;;;;;;;;11.75;59.49;99743.22;4335882;33;19984;-79
2023/01/01 10:13:44;;;;;;;;;;;;;;;11.86;59.07;99745.38;4335911;33;20352;-79
2023/01/01 10:16:22;;;;;;;;;;;;;;;11.82;59.21;99752.59;4334727;33;20010;-79
2023/01/01 10:18:49;;;;;;;;;;;;;;;11.53;59.80;99751.22;4334732;33;20352;-79
2023/01/01 10:21:35;;;;;;;;;;;;;;;11.68;59.51;99747.91;4334662;33;20707;-79
2023/01/01 10:24:02;;;;;;;;;;;;;;;11.41;60.45;99747.31;4322029;33;19999;-79
2023/01/01 10:26:28;;;;;;;;;;;;;;;11.10;62.08;99738.06;4322170;33;19987;-79
2023/01/01 10:28:54;;;;;;;;;;;;;;;11.44;61.66;99734.00;4334738;33;19983;-79
2023/01/01 10:31:24;;;;;;;;;;;;;;;11.61;61.28;99728.84;4335736;33;19997;-79
2023/01/01 10:33:49;;;;;;;;;;;;;;;11.71;61.01;99734.59;4334677;33;19979;-79
2023/01/01 10:36:16;;;;;;;;;;;;;;;11.74;60.85;99726.53;4334308;33;20308;-79
2023/01/01 10:38:42;;;;;;;;;;;;;;;11.84;61.07;99720.84;4334455;33;20007;-79
2023/01/01 10:41:08;;;;;;;;;;;;;;;11.95;60.88;99721.25;4335557;33;20226;-79
2023/01/01 10:43:34;;;;;;;;;;;;;;;12.04;60.48;99723.47;4334557;33;20526;-79
2023/01/01 10:45:59;;;;;;;;;;;;;;;11.94;60.44;99717.75;4334499;33;20002;-79
2023/01/01 10:48:25;;;;;;;;;;;;;;;12.02;60.29;99719.19;4334414;33;20025;-79
2023/01/01 10:50:52;;;;;;;;;;;;;;;12.09;60.42;99708.28;4334509;33;19995;-79
2023/01/01 10:53:18;;;;;;;;;;;;;;;12.24;60.16;99721.69;4334522;33;20342;-79
2023/01/01 10:55:47;;;;;;;;;;;;;;;12.34;59.86;99717.69;4321939;33;20347;-79
2023/01/01 10:58:24;;;;;;;;;;;;;;;12.43;59.44;99711.97;4322185;33;19991;-79
2023/01/01 11:00:59;;;;;;;;;;;;;;;12.36;59.17;99713.19;4335541;33;20055;-79
2023/01/01 11:03:25;;;;;;;;;;;;;;;12.27;58.81;99703.06;4335735;33;19980;-79
2023/01/01 11:05:59;;;;;;;;;;;;;;;12.23;59.30;99693.53;4335281;33;20331;-79
2023/01/01 11:08:24;;;;;;;;;;;;;;;12.37;59.34;99684.06;4335607;33;19979;-79
2023/01/01 11:10:50;;;;;;;;;;;;;;;12.35;59.28;99680.63;4334281;33;19983;-79
2023/01/01 11:13:19;;;;;;;;;;;;;;;12.10;59.52;99680.06;4334097;33;19998;-79
2023/01/01 11:15:44;;;;;;;;;;;;;;;12.61;58.88;99660.00;4334540;33;19979;-80
2023/01/01 11:18:22;;;;;;;;;;;;;;;12.74;58.29;99654.97;4333936;33;20014;-79
2023/01/01 11:20:51;;;;;;;;;;;;;;;12.90;57.90;99650.66;4321894;33;20018;-79
2023/01/01 11:23:30;;;;;;;;;;;;;;;12.91;57.71;99638.28;4321961;33;19990;-79
2023/01/01 11:26:15;;;;;;;;;;;;;;;13.05;57.33;99646.34;4321849;33;20571;-79
2023/01/01 11:28:40;;;;;;;;;;;;;;;12.80;57.62;99652.03;4332331;33;19990;-79
2023/01/01 11:31:06;;;;;;;;;;;;;;;12.67;57.79;99662.38;4334223;33;20006;-79
2023/01/01 11:33:33;;;;;;;;;;;;;;;12.71;57.92;99670.97;4335365;33;19998;-79
2023/01/01 11:35:58;;;;;;;;;;;;;;;12.75;57.47;99665.47;4334176;33;19979;-79
2023/01/01 11:38:24;;;;;;;;;;;;;;;12.82;57.77;99668.66;4334370;33;20014;-79
2023/01/01 11:40:54;;;;;;;;;;;;;;;12.94;57.93;99668.06;4322054;33;19999;-79
2023/01/01 11:43:23;;;;;;;;;;;;;;;12.92;57.92;99658.47;4334342;33;20010;-79
2023/01/01 11:45:49;;;;;;;;;;;;;;;12.99;57.91;99654.59;4334386;33;19967;-79
2023/01/01 11:48:14;;;;;;;;;;;;;;;13.02;57.75;99654.47;4334019;33;20006;-79
2023/01/01 11:50:40;;;;;;;;;;;;;;;13.07;57.34;99656.88;4335242;33;20324;-79
2023/01/01 11:53:28;;;;;;;;;;;;;;;13.02;57.19;99654.47;4334083;33;20342;-79
2023/01/01 11:55:56;;;;;;;;;;;;;;;12.79;57.31;99653.81;4333146;33;20038;-79
2023/01/01 11:58:22;;;;;;;;;;;;;;;12.66;57.70;99652.72;4334255;33;20055;-79
2023/01/01 12:00:48;;;;;;;;;;;;;;;12.71;57.62;99640.13;4335151;33;19983;-79
2023/01/01 12:03:13;;;;;;;;;;;;;;;12.64;57.88;99638.72;4334270;33;19975;-79
2023/01/01 12:05:46;;;;;;;;;;;;;;;12.56;58.14;99636.44;4335272;33;19972;-79
2023/01/01 12:08:12;;;;;;;;;;;;;;;12.41;58.62;99636.34;4334187;33;19980;-79
2023/01/01 12:10:43;;;;;;;;;;;;;;;12.34;58.69;99643.69;4333858;33;20005;-79
2023/01/01 12:13:15;;;;;;;;;;;;;;;12.29;59.08;99643.94;4335183;33;20055;-79
2023/01/01 12:15:41;;;;;;;;;;;;;;;12.19;59.42;99643.53;4333926;33;19971;-79
2023/01/01 12:18:15;;;;;;;;;;;;;;;12.21;59.56;99640.81;4333795;33;19983;-79
2023/01/01 12:20:47;;;;;;;;;;;;;;;12.20;59.76;99625.88;4334978;33;20351;-79
2023/01/01 12:23:12;;;;;;;;;;;;;;;12.22;59.94;99633.75;4333556;33;19990;-79
2023/01/01 12:25:38;;;;;;;;;;;;;;;12.23;60.08;99643.34;4333001;33;19983;-79
2023/01/01 12:28:12;;;;;;;;;;;;;;;12.08;60.28;99640.53;4333603;33;19983;-79
2023/01/01 12:30:56;;;;;;;;;;;;;;;12.11;60.45;99634.22;4334992;33;19993;-79
2023/01/01 12:33:40;;;;;;;;;;;;;;;11.90;61.10;99625.53;4334785;33;20305;-79
2023/01/01 12:36:17;;;;;;;;;;;;;;;11.96;61.25;99615.56;4334766;33;19971;-79
2023/01/01 12:39:01;;;;;;;;;;;;;;;12.04;61.03;99615.19;4333679;33;19995;-78
2023/01/01 12:41:31;;;;;;;;;;;;;;;12.02;61.03;99616.19;4334943;33;19987;-79
2023/01/01 12:43:56;;;;;;;;;;;;;;;12.06;61.03;99620.41;4333832;33;19990;-79
2023/01/01 12:46:24;;;;;;;;;;;;;;;12.15;60.70;99609.41;4334575;33;20244;-79
2023/01/01 12:48:50;;;;;;;;;;;;;;;12.13;60.72;99614.75;4334510;33;20433;-79
2023/01/01 12:51:41;;;;;;;;;;;;;;;12.12;60.90;99617.47;4334664;33;19979;-79
2023/01/01 12:54:25;;;;;;;;;;;;;;;12.13;61.00;99625.31;4317715;33;19991;-79
2023/01/01 12:56:56;;;;;;;;;;;;;;;12.25;61.17;99629.16;4317706;33;20360;-78
2023/01/01 12:59:23;;;;;;;;;;;;;;;12.25;61.16;99615.97;4305339;33;20036;-79